createdAt,value
2022-07-31T00:04:52.847Z,99532.06
2022-07-31T00:10:54.807Z,99536.06
2022-07-31T00:16:57.493Z,99525.81
2022-07-31T00:23:00.013Z,99520.38
2022-07-31T00:29:01.992Z,99532.13
2022-07-31T00:35:04.569Z,99529.41
2022-07-31T00:41:06.926Z,99527.44
2022-07-31T00:47:09.164Z,99516.38
2022-07-31T00:53:11.202Z,99515.41
2022-07-31T00:59:13.193Z,99513.03
2022-07-31T01:05:18.960Z,99512.34
2022-07-31T01:12:06.083Z,99493.03
2022-07-31T01:18:10.599Z,99518.38
2022-07-31T01:24:46.258Z,99528.50
2022-07-31T01:31:24.161Z,99510.34
2022-07-31T01:37:50.699Z,99505.06
2022-07-31T01:43:57.068Z,99504.97
2022-07-31T01:50:01.364Z,99499.44
2022-07-31T01:56:04.497Z,99489.88
2022-07-31T02:02:06.859Z,99490.34
2022-07-31T02:08:14.986Z,99497.44
2022-07-31T02:14:19.529Z,99498.41
2022-07-31T02:20:23.570Z,99502.41
2022-07-31T02:26:27.614Z,99492.03
2022-07-31T02:32:32.088Z,99483.53
2022-07-31T02:38:36.155Z,99492.25
2022-07-31T02:44:38.668Z,99488.69
2022-07-31T02:50:41.837Z,99479.50
2022-07-31T02:56:46.341Z,99484.78
2022-07-31T03:02:52.391Z,99476.75
2022-07-31T03:08:54.401Z,99466.63
2022-07-31T03:14:57.758Z,99480.28
2022-07-31T03:20:59.858Z,99466.63
2022-07-31T03:27:02.143Z,99473.19
2022-07-31T03:33:04.284Z,99472.28
2022-07-31T03:39:06.332Z,99474.94
2022-07-31T03:45:10.922Z,99478.34
2022-07-31T03:51:13.786Z,99479.97
2022-07-31T03:57:17.631Z,99482.53
2022-07-31T04:03:21.448Z,99489.81
2022-07-31T04:09:23.558Z,99496.50
2022-07-31T04:15:25.719Z,99493.41
2022-07-31T04:21:27.874Z,99495.94
2022-07-31T04:27:29.900Z,99487.81
2022-07-31T04:33:31.947Z,99488.72
2022-07-31T04:39:34.672Z,99510.41
2022-07-31T04:45:36.726Z,99514.34
2022-07-31T04:51:39.092Z,99511.06
2022-07-31T04:57:41.074Z,99507.44
2022-07-31T05:03:43.028Z,99504.31
2022-07-31T05:09:45.032Z,99500.88
2022-07-31T05:15:47.033Z,99503.91
2022-07-31T05:21:53.636Z,99511.47
2022-07-31T05:27:56.624Z,99513.59
2022-07-31T05:33:59.221Z,99516.88
2022-07-31T05:40:01.599Z,99522.69
2022-07-31T05:46:05.774Z,99521.03
2022-07-31T05:52:07.778Z,99500.09
2022-07-31T05:58:14.788Z,99503.25
2022-07-31T06:04:18.513Z,99509.22
2022-07-31T06:10:20.733Z,99488.59
2022-07-31T06:16:22.727Z,99501.16
2022-07-31T06:22:24.718Z,99503.88
2022-07-31T06:28:33.826Z,99493.81
2022-07-31T06:34:49.043Z,99503.94
2022-07-31T06:40:51.563Z,99499.84
2022-07-31T06:46:53.586Z,99503.50
2022-07-31T06:52:55.664Z,99505.59
2022-07-31T06:58:58.023Z,99488.75
2022-07-31T07:05:05.811Z,99483.53
2022-07-31T07:11:12.144Z,99481.72
2022-07-31T07:17:14.496Z,99486.00
2022-07-31T07:23:16.717Z,99495.63
2022-07-31T07:29:18.757Z,99494.25
2022-07-31T07:35:21.969Z,99495.34
2022-07-31T07:41:25.652Z,99487.91
2022-07-31T07:47:27.645Z,99486.41
2022-07-31T07:53:49.711Z,99470.75
2022-07-31T07:59:51.795Z,99468.06
2022-07-31T08:05:53.779Z,99459.50
2022-07-31T08:11:56.130Z,99459.38
2022-07-31T08:17:58.362Z,99454.78
2022-07-31T08:24:00.592Z,99451.34
2022-07-31T08:30:02.823Z,99450.25
2022-07-31T08:36:08.969Z,99440.16
2022-07-31T08:42:11.091Z,99444.59
2022-07-31T08:48:14.564Z,99442.16
2022-07-31T08:54:19.024Z,99437.41
2022-07-31T09:00:22.746Z,99422.13
2022-07-31T09:06:24.913Z,99421.03
2022-07-31T09:12:33.498Z,99412.28
2022-07-31T09:18:36.373Z,99416.75
2022-07-31T09:24:39.845Z,99404.06
2022-07-31T09:30:56.148Z,99395.06
2022-07-31T09:37:18.601Z,99401.38
2022-07-31T09:43:24.577Z,99382.16
2022-07-31T09:49:35.254Z,99377.75
2022-07-31T09:55:37.321Z,99362.81
2022-07-31T10:01:41.292Z,99364.97
2022-07-31T10:08:51.671Z,99371.91
2022-07-31T10:14:56.203Z,99368.25
2022-07-31T10:21:02.133Z,99365.56
2022-07-31T10:27:09.112Z,99356.13
2022-07-31T10:33:40.691Z,99345.28
2022-07-31T10:39:42.066Z,99352.16
2022-07-31T10:45:53.447Z,99338.47
2022-07-31T10:51:55.643Z,99342.91
2022-07-31T10:58:19.806Z,99330.63
2022-07-31T11:04:34.056Z,99322.84
2022-07-31T11:10:36.228Z,99326.75
2022-07-31T11:16:53.251Z,99321.66
2022-07-31T11:23:01.224Z,99311.41
2022-07-31T11:30:00.380Z,99293.59
2022-07-31T11:35:31.517Z,99289.50
2022-07-31T11:41:44.004Z,99277.66
2022-07-31T11:48:12.565Z,99279.09
2022-07-31T11:54:11.045Z,99266.28
2022-07-31T12:00:26.835Z,99260.59
2022-07-31T12:06:34.867Z,99253.75
2022-07-31T12:12:40.902Z,99261.81
2022-07-31T12:18:50.691Z,99256.47
2022-07-31T12:25:08.594Z,99247.63
2022-07-31T12:31:11.042Z,99238.91
2022-07-31T12:37:17.810Z,99236.84
2022-07-31T12:43:24.712Z,99232.97
2022-07-31T12:49:26.699Z,99220.34
2022-07-31T12:55:33.264Z,99212.00
2022-07-31T13:01:36.713Z,99208.59
2022-07-31T13:07:39.063Z,99199.00
2022-07-31T13:13:41.143Z,99191.19
2022-07-31T13:19:43.271Z,99184.88
2022-07-31T13:25:45.234Z,99170.69
2022-07-31T13:31:47.261Z,99169.41
2022-07-31T13:37:49.271Z,99171.53
2022-07-31T13:43:59.606Z,99158.06
2022-07-31T13:50:02.760Z,99163.25
2022-07-31T13:56:05.306Z,99154.22
2022-07-31T14:02:07.754Z,99140.41
2022-07-31T14:08:33.130Z,99137.56
2022-07-31T14:14:31.928Z,99132.59
2022-07-31T14:20:34.879Z,99130.22
2022-07-31T14:26:36.881Z,99123.91
2022-07-31T14:32:39.382Z,99117.91
2022-07-31T14:38:41.391Z,99106.06
2022-07-31T14:44:43.456Z,99126.88
2022-07-31T14:50:45.428Z,99129.47
2022-07-31T14:57:01.210Z,99134.44
2022-07-31T15:03:03.890Z,99127.06
2022-07-31T15:09:06.351Z,99127.63
2022-07-31T15:15:09.209Z,99130.47
2022-07-31T15:21:17.335Z,99118.97
2022-07-31T15:27:21.979Z,99123.53
2022-07-31T15:33:24.724Z,99135.19
2022-07-31T15:39:26.714Z,99145.22
2022-07-31T15:45:28.842Z,99143.56
2022-07-31T15:51:30.812Z,99160.44
2022-07-31T15:57:33.271Z,99150.75
2022-07-31T16:03:51.159Z,99157.22
2022-07-31T16:10:03.472Z,99161.31
2022-07-31T16:16:17.552Z,99159.16
2022-07-31T16:22:19.539Z,99174.41
2022-07-31T16:28:21.959Z,99177.03
2022-07-31T16:34:24.647Z,99175.28
2022-07-31T16:40:31.032Z,99158.44
2022-07-31T16:46:33.726Z,99158.31
2022-07-31T16:52:35.902Z,99155.25
2022-07-31T16:58:38.148Z,99148.59
2022-07-31T17:04:40.187Z,99151.78
2022-07-31T17:10:42.240Z,99167.03
2022-07-31T17:16:47.951Z,99165.91
2022-07-31T17:22:54.544Z,99167.66
2022-07-31T17:28:57.828Z,99151.53
2022-07-31T17:34:59.910Z,99142.00
2022-07-31T17:41:03.226Z,99153.84
2022-07-31T17:47:07.830Z,99160.44
2022-07-31T17:53:10.272Z,99161.72
2022-07-31T17:59:16.149Z,99151.13
2022-07-31T18:05:18.244Z,99152.63
2022-07-31T18:11:21.507Z,99140.44
2022-07-31T18:17:23.625Z,99130.03
2022-07-31T18:23:29.433Z,99122.72
2022-07-31T18:29:37.595Z,99121.78
2022-07-31T18:35:41.151Z,99124.81
2022-07-31T18:41:48.250Z,99120.50
2022-07-31T18:47:51.344Z,99126.03
2022-07-31T18:53:54.357Z,99133.66
2022-07-31T18:59:56.880Z,99130.44
2022-07-31T19:05:59.018Z,99122.41
2022-07-31T19:12:06.203Z,99121.13
2022-07-31T19:18:10.090Z,99123.84
2022-07-31T19:24:15.454Z,99119.28
2022-07-31T19:30:17.438Z,99130.75
2022-07-31T19:36:19.424Z,99128.34
2022-07-31T19:42:21.514Z,99122.06
2022-07-31T19:48:23.651Z,99133.78
2022-07-31T19:54:25.766Z,99116.59
2022-07-31T20:00:27.827Z,99130.00
2022-07-31T20:06:29.850Z,99125.84
2022-07-31T20:12:31.881Z,99131.59
2022-07-31T20:18:34.007Z,99124.50
2022-07-31T20:24:36.044Z,99126.97
2022-07-31T20:30:38.003Z,99126.44
2022-07-31T20:36:40.677Z,99124.81
2022-07-31T20:42:42.625Z,99123.44
2022-07-31T20:48:45.405Z,99131.06
2022-07-31T20:54:47.510Z,99138.13
2022-07-31T21:00:51.915Z,99142.78
2022-07-31T21:06:54.075Z,99141.16
2022-07-31T21:12:56.170Z,99152.63
2022-07-31T21:18:58.195Z,99151.50
2022-07-31T21:25:02.046Z,99156.44
2022-07-31T21:31:05.443Z,99140.59
2022-07-31T21:37:08.023Z,99149.59
2022-07-31T21:43:10.894Z,99153.66
2022-07-31T21:49:20.314Z,99155.28
2022-07-31T21:55:22.372Z,99147.69
2022-07-31T22:01:24.530Z,99156.09
2022-07-31T22:07:32.572Z,99163.22
2022-07-31T22:13:34.621Z,99155.28
2022-07-31T22:19:37.053Z,99154.47
2022-07-31T22:25:48.920Z,99159.63
2022-07-31T22:31:54.085Z,99158.19
2022-07-31T22:37:57.050Z,99162.53
2022-07-31T22:44:13.357Z,99161.69
2022-07-31T22:50:16.560Z,99161.69
2022-07-31T22:56:19.195Z,99166.94
2022-07-31T23:02:21.464Z,99163.31
2022-07-31T23:08:23.570Z,99159.50
2022-07-31T23:14:25.962Z,99166.88
2022-07-31T23:20:28.126Z,99160.59
2022-07-31T23:26:30.196Z,99156.50
2022-07-31T23:32:32.224Z,99167.75
2022-07-31T23:38:34.217Z,99167.59
2022-07-31T23:44:40.044Z,99160.78
2022-07-31T23:50:43.350Z,99150.50
2022-07-31T23:56:45.403Z,99154.81
